createdAt,value
2016-08-11T00:00:45.109Z,958.75
2016-08-11T00:01:45.131Z,958.74
2016-08-11T00:02:45.153Z,958.75
2016-08-11T00:03:45.178Z,958.71
2016-08-11T00:04:45.201Z,958.78
2016-08-11T00:05:45.225Z,958.76
2016-08-11T00:06:45.246Z,958.75
2016-08-11T00:07:45.268Z,958.75
2016-08-11T00:08:45.292Z,958.76
2016-08-11T00:09:45.313Z,958.75
2016-08-11T00:10:45.336Z,958.81
2016-08-11T00:11:45.382Z,958.77
2016-08-11T00:12:45.385Z,958.76
2016-08-11T00:13:45.407Z,958.77
2016-08-11T00:14:45.431Z,958.76
2016-08-11T00:15:45.455Z,958.76
2016-08-11T00:16:45.478Z,958.77
2016-08-11T00:17:45.500Z,958.76
2016-08-11T00:18:45.524Z,958.75
2016-08-11T00:20:45.569Z,958.79
2016-08-11T00:21:45.593Z,958.79
2016-08-11T00:22:45.616Z,958.75
2016-08-11T00:23:45.640Z,958.75
2016-08-11T00:24:45.661Z,958.76
2016-08-11T00:25:45.685Z,958.74
2016-08-11T00:26:45.709Z,958.75
2016-08-11T00:27:45.731Z,958.74
2016-08-11T00:28:45.755Z,958.78
2016-08-11T00:29:45.777Z,958.76
2016-08-11T00:30:45.801Z,958.79
2016-08-11T00:31:45.824Z,958.79
2016-08-11T00:32:45.847Z,958.78
2016-08-11T00:33:45.870Z,958.84
2016-08-11T00:34:45.894Z,958.8
2016-08-11T00:35:45.917Z,958.8
2016-08-11T00:36:45.940Z,958.82
2016-08-11T00:37:45.961Z,958.82
2016-08-11T00:38:45.985Z,958.8
2016-08-11T00:39:46.009Z,958.82
2016-08-11T00:40:46.031Z,958.81
2016-08-11T00:41:46.055Z,958.84
2016-08-11T00:42:46.098Z,958.82
2016-08-11T00:43:46.105Z,958.85
2016-08-11T00:44:46.126Z,958.84
2016-08-11T00:45:46.148Z,958.84
2016-08-11T00:46:46.171Z,958.84
2016-08-11T00:47:46.193Z,958.83
2016-08-11T00:48:46.217Z,958.86
2016-08-11T00:49:46.291Z,958.84
2016-08-11T00:50:46.263Z,958.85
2016-08-11T00:51:46.287Z,958.85
2016-08-11T00:52:46.310Z,958.86
2016-08-11T00:53:46.332Z,958.87
2016-08-11T00:54:46.355Z,958.86
2016-08-11T00:55:46.378Z,958.89
2016-08-11T00:56:46.402Z,958.88
2016-08-11T00:57:46.424Z,958.88
2016-08-11T00:58:46.450Z,958.88
2016-08-11T00:59:46.471Z,958.86
2016-08-11T01:00:46.494Z,958.91
2016-08-11T01:01:46.518Z,958.9
2016-08-11T01:02:46.542Z,958.91
2016-08-11T01:03:46.566Z,958.88
2016-08-11T01:04:46.587Z,958.88
2016-08-11T01:05:46.611Z,958.95
2016-08-11T01:06:46.634Z,958.9
2016-08-11T01:07:46.657Z,958.9
2016-08-11T01:08:46.679Z,958.94
2016-08-11T01:09:46.703Z,958.92
2016-08-11T01:10:46.730Z,958.93
2016-08-11T01:11:46.755Z,958.97
2016-08-11T01:12:46.773Z,958.94
2016-08-11T01:13:46.812Z,958.95
2016-08-11T01:14:46.820Z,958.95
2016-08-11T01:15:46.841Z,958.99
2016-08-11T01:16:46.867Z,959.01
2016-08-11T01:17:46.889Z,958.95
2016-08-11T01:18:46.911Z,959
2016-08-11T01:19:46.935Z,958.98
2016-08-11T01:20:46.959Z,959.02
2016-08-11T01:21:46.983Z,959.02
2016-08-11T01:22:47.003Z,959.05
2016-08-11T01:23:47.028Z,959.07
2016-08-11T01:24:47.051Z,959.1
2016-08-11T01:25:47.075Z,959.09
2016-08-11T01:26:47.097Z,959.06
2016-08-11T01:27:47.119Z,959.11
2016-08-11T01:28:47.145Z,959.12
2016-08-11T01:29:47.186Z,959.13
2016-08-11T01:30:47.190Z,959.15
2016-08-11T01:31:47.212Z,959.15
2016-08-11T01:32:47.234Z,959.13
2016-08-11T01:33:47.257Z,959.19
2016-08-11T01:34:47.283Z,959.21
2016-08-11T01:35:47.305Z,959.27
2016-08-11T01:36:47.328Z,959.25
2016-08-11T01:37:47.350Z,959.21
2016-08-11T01:38:47.375Z,959.28
2016-08-11T01:39:47.397Z,959.21
2016-08-11T01:40:47.419Z,959.23
2016-08-11T01:41:47.442Z,959.22
2016-08-11T01:42:47.467Z,959.25
2016-08-11T01:43:47.488Z,959.3
2016-08-11T01:44:47.527Z,959.27
2016-08-11T01:45:47.533Z,959.3
2016-08-11T01:46:47.561Z,959.33
2016-08-11T01:47:47.583Z,959.37
2016-08-11T01:48:47.604Z,959.31
2016-08-11T01:49:47.677Z,959.31
2016-08-11T01:50:47.648Z,959.3
2016-08-11T01:51:47.673Z,959.37
2016-08-11T01:52:47.695Z,959.32
2016-08-11T01:53:47.717Z,959.36
2016-08-11T01:54:47.741Z,959.35
2016-08-11T01:55:47.764Z,959.38
2016-08-11T01:56:47.788Z,959.36
2016-08-11T01:57:47.810Z,959.38
2016-08-11T01:58:47.834Z,959.38
2016-08-11T01:59:47.855Z,959.38
2016-08-11T02:00:47.902Z,959.37
2016-08-11T02:01:47.903Z,959.36
2016-08-11T02:02:47.924Z,959.35
2016-08-11T02:03:47.953Z,959.39
2016-08-11T02:04:47.971Z,959.4
2016-08-11T02:05:47.994Z,959.39
2016-08-11T02:06:48.015Z,959.43
2016-08-11T02:07:48.037Z,959.43
2016-08-11T02:08:48.062Z,959.42
2016-08-11T02:09:48.086Z,959.47
2016-08-11T02:10:48.107Z,959.49
2016-08-11T02:11:48.130Z,959.47
2016-08-11T02:12:48.153Z,959.49
2016-08-11T02:13:48.175Z,959.48
2016-08-11T02:14:48.198Z,959.52
2016-08-11T02:15:48.243Z,959.48
2016-08-11T02:16:48.244Z,959.46
2016-08-11T02:17:48.266Z,959.45
2016-08-11T02:18:48.291Z,959.43
2016-08-11T02:19:48.313Z,959.49
2016-08-11T02:20:48.336Z,959.47
2016-08-11T02:21:48.363Z,959.45
2016-08-11T02:22:48.381Z,959.48
2016-08-11T02:23:48.405Z,959.48
2016-08-11T02:24:48.425Z,959.46
2016-08-11T02:25:48.449Z,959.5
2016-08-11T02:26:48.472Z,959.5
2016-08-11T02:27:48.495Z,959.5
2016-08-11T02:28:48.518Z,959.52
2016-08-11T02:29:48.540Z,959.45
2016-08-11T02:30:48.563Z,959.47
2016-08-11T02:31:48.586Z,959.39
2016-08-11T02:32:48.608Z,959.43
2016-08-11T02:33:48.632Z,959.42
2016-08-11T02:34:48.654Z,959.45
2016-08-11T02:35:48.676Z,959.48
2016-08-11T02:36:48.699Z,959.43
2016-08-11T02:37:48.723Z,959.47
2016-08-11T02:38:48.745Z,959.51
2016-08-11T02:39:48.775Z,959.46
2016-08-11T02:40:48.791Z,959.5
2016-08-11T02:41:48.814Z,959.52
2016-08-11T02:42:48.845Z,959.55
2016-08-11T02:43:48.860Z,959.52
2016-08-11T02:44:48.882Z,959.52
2016-08-11T02:45:48.905Z,959.51
2016-08-11T02:46:48.928Z,959.53
2016-08-11T02:47:48.951Z,959.5
2016-08-11T02:48:48.973Z,959.5
2016-08-11T02:49:49.048Z,959.51
2016-08-11T02:50:49.020Z,959.49
2016-08-11T02:51:49.042Z,959.54
2016-08-11T02:52:49.065Z,959.49
2016-08-11T02:53:49.086Z,959.48
2016-08-11T02:54:49.117Z,959.48
2016-08-11T02:55:49.132Z,959.47
2016-08-11T02:56:49.156Z,959.48
2016-08-11T02:57:49.178Z,959.48
2016-08-11T02:59:49.223Z,959.49
2016-08-11T03:00:49.246Z,959.48
2016-08-11T03:01:49.267Z,959.52
2016-08-11T03:02:49.292Z,959.51
2016-08-11T03:03:49.315Z,959.46
2016-08-11T03:04:49.337Z,959.5
2016-08-11T03:05:49.359Z,959.49
2016-08-11T03:06:49.382Z,959.46
2016-08-11T03:07:49.407Z,959.49
2016-08-11T03:08:49.426Z,959.48
2016-08-11T03:09:49.458Z,959.5
2016-08-11T03:10:49.473Z,959.47
2016-08-11T03:11:49.495Z,959.5
2016-08-11T03:12:49.518Z,959.53
2016-08-11T03:14:49.563Z,959.48
2016-08-11T03:15:49.586Z,959.51
2016-08-11T03:16:49.608Z,959.49
2016-08-11T03:17:49.643Z,959.52
2016-08-11T03:18:49.655Z,959.52
2016-08-11T03:19:49.675Z,959.53
2016-08-11T03:20:49.699Z,959.52
2016-08-11T03:21:49.723Z,959.54
2016-08-11T03:22:49.744Z,959.54
2016-08-11T03:23:49.766Z,959.57
2016-08-11T03:24:49.789Z,959.59
2016-08-11T03:25:49.831Z,959.54
2016-08-11T03:26:49.847Z,959.57
2016-08-11T03:27:49.856Z,959.6
2016-08-11T03:29:49.906Z,959.62
2016-08-11T03:30:49.924Z,959.62
2016-08-11T03:31:49.949Z,959.62
2016-08-11T03:32:49.971Z,959.61
2016-08-11T03:33:49.993Z,959.6
2016-08-11T03:34:50.015Z,959.6
2016-08-11T03:35:50.039Z,959.62
2016-08-11T03:36:50.061Z,959.64
2016-08-11T03:37:50.082Z,959.6
2016-08-11T03:38:50.107Z,959.63
2016-08-11T03:39:50.129Z,959.64
2016-08-11T03:40:50.173Z,959.6
2016-08-11T03:41:50.175Z,959.6
2016-08-11T03:42:50.197Z,959.62
2016-08-11T03:44:50.242Z,959.58
2016-08-11T03:45:50.265Z,959.61
2016-08-11T03:46:50.288Z,959.67
2016-08-11T03:47:50.309Z,959.64
2016-08-11T03:48:50.333Z,959.61
2016-08-11T03:49:50.354Z,959.66
2016-08-11T03:50:50.377Z,959.61
2016-08-11T03:51:50.401Z,959.65
2016-08-11T03:52:50.422Z,959.65
2016-08-11T03:53:50.445Z,959.63
2016-08-11T03:54:50.467Z,959.66
2016-08-11T03:55:50.492Z,959.65
2016-08-11T03:56:50.512Z,959.67
2016-08-11T03:57:50.537Z,959.67
2016-08-11T03:59:50.581Z,959.69
2016-08-11T04:00:50.604Z,959.64
2016-08-11T04:01:50.625Z,959.66
2016-08-11T04:02:50.649Z,959.67
2016-08-11T04:03:50.671Z,959.73
2016-08-11T04:04:50.693Z,959.75
2016-08-11T04:05:50.717Z,959.74
2016-08-11T04:06:50.739Z,959.76
2016-08-11T04:07:50.760Z,959.76
2016-08-11T04:08:50.784Z,959.81
2016-08-11T04:09:50.807Z,959.8
2016-08-11T04:10:50.828Z,959.83
2016-08-11T04:11:50.851Z,959.82
2016-08-11T04:12:50.874Z,959.82
2016-08-11T04:14:50.918Z,959.81
2016-08-11T04:15:50.941Z,959.82
2016-08-11T04:16:50.963Z,959.81
2016-08-11T04:17:50.986Z,959.82
2016-08-11T04:18:51.009Z,959.82
2016-08-11T04:19:51.046Z,959.83
2016-08-11T04:20:51.055Z,959.8
2016-08-11T04:21:51.076Z,959.85
2016-08-11T04:22:51.099Z,959.86
2016-08-11T04:23:51.123Z,959.86
2016-08-11T04:24:51.155Z,959.9
2016-08-11T04:25:51.166Z,959.91
2016-08-11T04:26:51.190Z,959.91
2016-08-11T04:27:51.212Z,959.94
2016-08-11T04:28:51.235Z,959.93
2016-08-11T04:29:51.256Z,959.94
2016-08-11T04:30:51.282Z,959.96
2016-08-11T04:31:51.303Z,959.98
2016-08-11T04:32:51.326Z,960
2016-08-11T04:33:51.346Z,959.98
2016-08-11T04:34:51.387Z,960
2016-08-11T04:35:51.392Z,960.01
2016-08-11T04:36:51.413Z,960.02
2016-08-11T04:37:51.442Z,960.04
2016-08-11T04:38:51.458Z,960.01
2016-08-11T04:39:51.482Z,960.05
2016-08-11T04:40:51.503Z,960.06
2016-08-11T04:41:51.526Z,960.06
2016-08-11T04:42:51.548Z,960.08
2016-08-11T04:44:51.593Z,960.08
2016-08-11T04:45:51.615Z,960.1
2016-08-11T04:46:51.639Z,960.13
2016-08-11T04:47:51.660Z,960.14
2016-08-11T04:48:51.681Z,960.16
2016-08-11T04:49:51.754Z,960.13
2016-08-11T04:50:51.728Z,960.13
2016-08-11T04:51:51.749Z,960.1
2016-08-11T04:52:51.772Z,960.12
2016-08-11T04:53:51.795Z,960.15
2016-08-11T04:54:51.814Z,960.14
2016-08-11T04:55:51.838Z,960.17
2016-08-11T04:56:51.862Z,960.18
2016-08-11T04:57:51.886Z,960.14
2016-08-11T04:58:51.906Z,960.19
2016-08-11T04:59:51.928Z,960.16
2016-08-11T05:00:51.949Z,960.2
2016-08-11T05:01:51.973Z,960.2
2016-08-11T05:02:51.994Z,960.2
2016-08-11T05:03:52.018Z,960.19
2016-08-11T05:04:52.041Z,960.21
2016-08-11T05:05:52.074Z,960.21
2016-08-11T05:06:52.085Z,960.2
2016-08-11T05:07:52.108Z,960.22
2016-08-11T05:08:52.131Z,960.25
2016-08-11T05:09:52.152Z,960.28
2016-08-11T05:10:52.174Z,960.25
2016-08-11T05:11:52.198Z,960.22
2016-08-11T05:12:52.218Z,960.27
2016-08-11T05:13:52.258Z,960.29
2016-08-11T05:14:52.264Z,960.26
2016-08-11T05:15:52.286Z,960.26
2016-08-11T05:16:52.312Z,960.26
2016-08-11T05:17:52.331Z,960.26
2016-08-11T05:18:52.356Z,960.29
2016-08-11T05:19:52.376Z,960.3
2016-08-11T05:20:52.397Z,960.29
2016-08-11T05:21:52.421Z,960.32
2016-08-11T05:22:52.443Z,960.35
2016-08-11T05:23:52.465Z,960.3
2016-08-11T05:24:52.487Z,960.37
2016-08-11T05:25:52.511Z,960.33
2016-08-11T05:26:52.533Z,960.42
2016-08-11T05:27:52.557Z,960.4
2016-08-11T05:28:52.601Z,960.42
2016-08-11T05:29:52.599Z,960.44
2016-08-11T05:30:52.623Z,960.44
2016-08-11T05:31:52.643Z,960.42
2016-08-11T05:32:52.666Z,960.44
2016-08-11T05:33:52.690Z,960.46
2016-08-11T05:34:52.712Z,960.46
2016-08-11T05:35:52.733Z,960.44
2016-08-11T05:36:52.757Z,960.44
2016-08-11T05:37:52.779Z,960.43
2016-08-11T05:38:52.800Z,960.47
2016-08-11T05:39:52.823Z,960.47
2016-08-11T05:40:52.845Z,960.48
2016-08-11T05:41:52.868Z,960.51
2016-08-11T05:42:52.890Z,960.49
2016-08-11T05:43:52.913Z,960.52
2016-08-11T05:44:52.935Z,960.48
2016-08-11T05:45:52.956Z,960.49
2016-08-11T05:46:52.980Z,960.48
2016-08-11T05:47:53.002Z,960.46
2016-08-11T05:48:53.025Z,960.47
2016-08-11T05:50:53.069Z,960.43
2016-08-11T05:51:53.099Z,960.41
2016-08-11T05:52:53.114Z,960.4
2016-08-11T05:53:53.136Z,960.42
2016-08-11T05:54:53.160Z,960.4
2016-08-11T05:55:53.183Z,960.43
2016-08-11T05:56:53.205Z,960.44
2016-08-11T05:57:53.226Z,960.44
2016-08-11T05:58:53.249Z,960.41
2016-08-11T05:59:53.271Z,960.43
2016-08-11T06:00:53.295Z,960.48
2016-08-11T06:01:53.317Z,960.52
2016-08-11T06:02:53.339Z,960.51
2016-08-11T06:03:53.360Z,960.53
2016-08-11T06:04:53.384Z,960.54
2016-08-11T06:05:53.407Z,960.5
2016-08-11T06:06:53.429Z,960.54
2016-08-11T06:07:53.473Z,960.59
2016-08-11T06:08:53.474Z,960.55
2016-08-11T06:09:53.497Z,960.56
2016-08-11T06:10:53.521Z,960.57
2016-08-11T06:11:53.542Z,960.6
2016-08-11T06:12:53.564Z,960.57
2016-08-11T06:13:53.588Z,960.59
2016-08-11T06:14:53.609Z,960.58
2016-08-11T06:15:53.633Z,960.59
2016-08-11T06:16:53.656Z,960.58
2016-08-11T06:17:53.677Z,960.58
2016-08-11T06:18:53.701Z,960.59
2016-08-11T06:19:53.723Z,960.6
2016-08-11T06:20:53.750Z,960.61
2016-08-11T06:21:53.769Z,960.67
2016-08-11T06:22:53.792Z,960.67
2016-08-11T06:23:53.829Z,960.67
2016-08-11T06:24:53.837Z,960.7
2016-08-11T06:25:53.860Z,960.66
2016-08-11T06:26:53.881Z,960.64
2016-08-11T06:27:53.904Z,960.66
2016-08-11T06:28:53.928Z,960.68
2016-08-11T06:29:53.951Z,960.64
2016-08-11T06:30:53.975Z,960.67
2016-08-11T06:31:53.996Z,960.69
2016-08-11T06:32:54.019Z,960.71
2016-08-11T06:33:54.042Z,960.69
2016-08-11T06:34:54.065Z,960.73
2016-08-11T06:35:54.087Z,960.75
2016-08-11T06:36:54.110Z,960.77
2016-08-11T06:37:54.134Z,960.81
2016-08-11T06:38:54.157Z,960.79
2016-08-11T06:39:54.179Z,960.8
2016-08-11T06:40:54.202Z,960.83
2016-08-11T06:41:54.226Z,960.82
2016-08-11T06:42:54.250Z,960.8
2016-08-11T06:43:54.274Z,960.85
2016-08-11T06:44:54.295Z,960.85
2016-08-11T06:45:54.320Z,960.86
2016-08-11T06:46:54.341Z,960.89
2016-08-11T06:47:54.364Z,960.89
2016-08-11T06:48:54.389Z,960.87
2016-08-11T06:49:54.413Z,960.89
2016-08-11T06:50:56.091Z,960.9
2016-08-11T06:51:54.458Z,960.88
2016-08-11T06:52:54.482Z,960.89
2016-08-11T06:53:54.505Z,960.91
2016-08-11T06:54:54.529Z,960.86
2016-08-11T06:55:54.553Z,960.87
2016-08-11T06:56:54.575Z,960.88
2016-08-11T06:57:54.601Z,960.9
2016-08-11T06:58:54.622Z,960.92
2016-08-11T06:59:54.644Z,960.86
2016-08-11T07:00:54.669Z,960.86
2016-08-11T07:01:54.693Z,960.87
2016-08-11T07:02:54.715Z,960.88
2016-08-11T07:03:54.739Z,960.89
2016-08-11T07:04:54.762Z,960.89
2016-08-11T07:05:54.793Z,960.91
2016-08-11T07:06:54.810Z,960.93
2016-08-11T07:07:54.832Z,960.95
2016-08-11T07:08:54.854Z,960.94
2016-08-11T07:09:54.879Z,960.94
2016-08-11T07:10:54.902Z,960.93
2016-08-11T07:11:54.926Z,960.9
2016-08-11T07:12:54.948Z,960.92
2016-08-11T07:13:54.973Z,960.9
2016-08-11T07:14:54.996Z,960.88
2016-08-11T07:15:55.019Z,960.91
2016-08-11T07:16:55.043Z,960.89
2016-08-11T07:17:55.067Z,960.9
2016-08-11T07:18:55.090Z,960.88
2016-08-11T07:19:55.114Z,960.9
2016-08-11T07:20:55.148Z,960.9
2016-08-11T07:21:55.161Z,960.89
2016-08-11T07:22:55.184Z,960.91
2016-08-11T07:23:55.209Z,960.93
2016-08-11T07:24:55.244Z,960.96
2016-08-11T07:25:55.255Z,960.98
2016-08-11T07:26:55.280Z,960.98
2016-08-11T07:27:55.304Z,960.99
2016-08-11T07:28:55.327Z,961
2016-08-11T07:29:55.350Z,961
2016-08-11T07:30:55.376Z,961.01
2016-08-11T07:31:55.397Z,961.02
2016-08-11T07:32:55.423Z,961.01
2016-08-11T07:33:55.447Z,961.02
2016-08-11T07:34:55.470Z,961.04
2016-08-11T07:35:55.495Z,961.02
2016-08-11T07:36:55.518Z,961
2016-08-11T07:37:55.548Z,961
2016-08-11T07:38:55.567Z,960.98
2016-08-11T07:39:55.592Z,961.01
2016-08-11T07:40:55.624Z,960.98
2016-08-11T07:41:55.640Z,961
2016-08-11T07:42:55.663Z,960.95
2016-08-11T07:43:55.688Z,960.98
2016-08-11T07:44:55.711Z,961.02
2016-08-11T07:45:55.737Z,961
2016-08-11T07:46:55.760Z,960.99
2016-08-11T07:47:55.785Z,961.02
2016-08-11T07:48:55.811Z,961.02
2016-08-11T07:49:55.834Z,961.05
2016-08-11T07:50:55.859Z,961.04
2016-08-11T07:51:55.917Z,961.02
2016-08-11T07:52:55.912Z,961.05
2016-08-11T07:53:55.931Z,961.07
2016-08-11T07:54:55.956Z,961.09
2016-08-11T07:55:55.987Z,961.07
2016-08-11T07:56:56.006Z,961.1
2016-08-11T07:57:56.028Z,961.11
2016-08-11T07:58:56.062Z,961.17
2016-08-11T07:59:56.112Z,961.13
2016-08-11T08:00:56.102Z,961.15
2016-08-11T08:01:56.126Z,961.1
2016-08-11T08:02:56.156Z,961.13
2016-08-11T08:03:56.179Z,961.15
2016-08-11T08:04:56.200Z,961.13
2016-08-11T08:05:56.224Z,961.14
2016-08-11T08:06:56.248Z,961.15
2016-08-11T08:07:56.273Z,961.16
2016-08-11T08:08:56.298Z,961.21
2016-08-11T08:09:56.321Z,961.2
2016-08-11T08:10:56.346Z,961.22
2016-08-11T08:11:56.370Z,961.21
2016-08-11T08:12:56.394Z,961.21
2016-08-11T08:13:56.418Z,961.16
2016-08-11T08:14:56.443Z,961.19
2016-08-11T08:15:56.465Z,961.17
2016-08-11T08:16:56.491Z,961.19
2016-08-11T08:17:56.515Z,961.18
2016-08-11T08:18:56.539Z,961.23
2016-08-11T08:19:56.564Z,961.16
2016-08-11T08:20:56.587Z,961.2
2016-08-11T08:21:56.611Z,961.2
2016-08-11T08:22:56.637Z,961.25
2016-08-11T08:23:56.659Z,961.22
2016-08-11T08:24:56.681Z,961.21
2016-08-11T08:25:56.706Z,961.22
2016-08-11T08:26:56.731Z,961.23
2016-08-11T08:27:56.770Z,961.2
2016-08-11T08:28:56.780Z,961.19
2016-08-11T08:29:56.804Z,961.23
2016-08-11T08:30:56.827Z,961.19
2016-08-11T08:31:56.856Z,961.17
2016-08-11T08:32:56.882Z,961.21
2016-08-11T08:33:56.899Z,961.22
2016-08-11T08:34:56.929Z,961.19
2016-08-11T08:35:56.950Z,961.21
2016-08-11T08:36:56.973Z,961.16
2016-08-11T08:37:56.998Z,961.15
2016-08-11T08:38:57.022Z,961.17
2016-08-11T08:39:57.047Z,961.13
2016-08-11T08:40:57.072Z,961.14
2016-08-11T08:41:57.096Z,961.13
2016-08-11T08:42:57.126Z,961.15
2016-08-11T08:43:57.144Z,961.12
2016-08-11T08:44:57.168Z,961.17
2016-08-11T08:45:57.193Z,961.09
2016-08-11T08:46:57.218Z,961.1
2016-08-11T08:47:57.241Z,961.1
2016-08-11T08:48:57.265Z,961.14
2016-08-11T08:49:57.290Z,961.12
2016-08-11T08:50:57.328Z,961.11
2016-08-11T08:51:57.339Z,961.11
2016-08-11T08:52:57.364Z,961.08
2016-08-11T08:53:57.386Z,961.06
2016-08-11T08:54:57.411Z,961.1
2016-08-11T08:55:57.435Z,961.06
2016-08-11T08:56:57.461Z,961.06
2016-08-11T08:57:57.485Z,961.08
2016-08-11T08:58:57.509Z,961.05
2016-08-11T08:59:57.532Z,961.08
2016-08-11T09:00:57.557Z,961.05
2016-08-11T09:01:57.583Z,961.04
2016-08-11T09:02:57.607Z,961.04
2016-08-11T09:03:57.632Z,961.02
2016-08-11T09:04:57.656Z,961.04
2016-08-11T09:05:57.680Z,961.03
2016-08-11T09:06:57.711Z,961.06
2016-08-11T09:07:57.731Z,961.07
2016-08-11T09:08:57.756Z,961.06
2016-08-11T09:09:57.780Z,961.07
2016-08-11T09:10:57.805Z,961.07
2016-08-11T09:11:57.830Z,961.09
2016-08-11T09:12:57.854Z,961.06
2016-08-11T09:13:57.878Z,961.07
2016-08-11T09:14:57.920Z,961.11
2016-08-11T09:15:57.928Z,961.04
2016-08-11T09:16:57.954Z,961.1
2016-08-11T09:17:57.978Z,961.07
2016-08-11T09:18:58.003Z,961.09
2016-08-11T09:19:58.029Z,961.01
2016-08-11T09:20:58.053Z,961.02
2016-08-11T09:21:58.078Z,961.02
2016-08-11T09:22:58.104Z,961
2016-08-11T09:23:58.129Z,961.01
2016-08-11T09:24:58.153Z,961.01
2016-08-11T09:25:58.178Z,960.99
2016-08-11T09:26:58.203Z,960.98
2016-08-11T09:27:58.229Z,960.98
2016-08-11T09:28:58.252Z,961.03
2016-08-11T09:29:58.281Z,961.02
2016-08-11T09:30:58.303Z,961.04
2016-08-11T09:31:58.331Z,961.02
2016-08-11T09:32:58.352Z,961.01
2016-08-11T09:33:58.379Z,961.05
2016-08-11T09:34:58.402Z,961.06
2016-08-11T09:35:58.426Z,961
2016-08-11T09:36:58.451Z,960.97
2016-08-11T09:37:58.478Z,960.98
2016-08-11T09:38:58.503Z,960.95
2016-08-11T09:39:58.528Z,960.94
2016-08-11T09:40:58.552Z,960.93
2016-08-11T09:41:58.577Z,960.91
2016-08-11T09:42:58.605Z,960.94
2016-08-11T09:43:58.629Z,960.97
2016-08-11T09:44:58.655Z,960.96
2016-08-11T09:45:58.693Z,960.99
2016-08-11T09:46:58.703Z,960.95
2016-08-11T09:47:58.730Z,960.97
2016-08-11T09:48:58.755Z,960.99
2016-08-11T09:49:58.781Z,960.93
2016-08-11T09:50:58.806Z,960.9
2016-08-11T09:51:58.832Z,960.86
2016-08-11T09:52:58.856Z,960.88
2016-08-11T09:53:58.881Z,960.91
2016-08-11T09:54:58.907Z,960.86
2016-08-11T09:55:58.934Z,960.83
2016-08-11T09:56:58.958Z,960.84
2016-08-11T09:57:58.982Z,960.89
2016-08-11T09:58:59.011Z,960.89
2016-08-11T09:59:59.034Z,960.87
2016-08-11T10:00:59.062Z,960.89
2016-08-11T10:01:59.088Z,960.88
2016-08-11T10:02:59.111Z,960.91
2016-08-11T10:03:59.136Z,960.9
2016-08-11T10:04:59.166Z,960.91
2016-08-11T10:05:59.186Z,960.91
2016-08-11T10:06:59.212Z,960.91
2016-08-11T10:07:59.237Z,960.91
2016-08-11T10:08:59.262Z,960.9
2016-08-11T10:09:59.287Z,960.88
2016-08-11T10:10:59.314Z,960.89
2016-08-11T10:11:59.340Z,960.89
2016-08-11T10:12:59.363Z,960.9
2016-08-11T10:13:59.389Z,960.92
2016-08-11T10:14:59.417Z,960.91
2016-08-11T10:15:59.443Z,960.92
2016-08-11T10:16:59.466Z,960.89
2016-08-11T10:17:59.504Z,960.94
2016-08-11T10:18:59.517Z,960.97
2016-08-11T10:19:59.542Z,960.86
2016-08-11T10:20:59.569Z,960.87
2016-08-11T10:21:59.594Z,960.82
2016-08-11T10:22:59.621Z,960.89
2016-08-11T10:23:59.646Z,960.86
2016-08-11T10:24:59.671Z,960.86
2016-08-11T10:25:59.720Z,960.89
2016-08-11T10:26:59.725Z,960.87
2016-08-11T10:27:59.750Z,960.88
2016-08-11T10:28:59.775Z,960.88
2016-08-11T10:29:59.802Z,960.84
2016-08-11T10:30:59.828Z,960.84
2016-08-11T10:31:59.853Z,960.85
2016-08-11T10:32:59.888Z,960.83
2016-08-11T10:33:59.908Z,960.87
2016-08-11T10:34:59.932Z,960.9
2016-08-11T10:35:59.961Z,960.85
2016-08-11T10:36:59.988Z,960.86
2016-08-11T10:38:00.014Z,960.83
2016-08-11T10:39:00.040Z,960.8
2016-08-11T10:40:00.068Z,960.8
2016-08-11T10:41:00.093Z,960.8
2016-08-11T10:42:00.121Z,960.77
2016-08-11T10:43:00.147Z,960.74
2016-08-11T10:44:00.175Z,960.73
2016-08-11T10:45:00.202Z,960.71
2016-08-11T10:46:00.232Z,960.7
2016-08-11T10:47:00.253Z,960.68
2016-08-11T10:48:00.282Z,960.67
2016-08-11T10:49:00.309Z,960.64
2016-08-11T10:50:00.336Z,960.71
2016-08-11T10:51:00.412Z,960.67
2016-08-11T10:52:00.390Z,960.67
2016-08-11T10:53:00.415Z,960.65
2016-08-11T10:54:00.444Z,960.65
2016-08-11T10:55:00.470Z,960.67
2016-08-11T10:56:00.497Z,960.65
2016-08-11T10:57:00.524Z,960.65
2016-08-11T10:58:00.552Z,960.67
2016-08-11T10:59:00.581Z,960.66
2016-08-11T11:00:00.605Z,960.66
2016-08-11T11:01:00.631Z,960.6
2016-08-11T11:02:00.659Z,960.63
2016-08-11T11:03:00.687Z,960.6
2016-08-11T11:04:00.713Z,960.53
2016-08-11T11:05:00.847Z,960.51
2016-08-11T11:06:00.767Z,960.51
2016-08-11T11:07:00.795Z,960.51
2016-08-11T11:08:00.819Z,960.5
2016-08-11T11:09:00.845Z,960.57
2016-08-11T11:10:00.875Z,960.54
2016-08-11T11:11:00.901Z,960.57
2016-08-11T11:12:00.926Z,960.55
2016-08-11T11:13:00.954Z,960.56
2016-08-11T11:14:00.979Z,960.49
2016-08-11T11:15:01.007Z,960.47
2016-08-11T11:16:01.034Z,960.47
2016-08-11T11:17:01.062Z,960.45
2016-08-11T11:18:01.087Z,960.47
2016-08-11T11:19:01.113Z,960.48
2016-08-11T11:20:01.142Z,960.48
2016-08-11T11:21:01.169Z,960.45
2016-08-11T11:22:01.194Z,960.44
2016-08-11T11:23:01.221Z,960.41
2016-08-11T11:24:01.248Z,960.43
2016-08-11T11:25:01.276Z,960.42
2016-08-11T11:26:01.302Z,960.42
2016-08-11T11:27:01.328Z,960.41
2016-08-11T11:28:01.355Z,960.46
2016-08-11T11:29:01.382Z,960.43
2016-08-11T11:31:01.435Z,960.39
2016-08-11T11:32:01.462Z,960.37
2016-08-11T11:33:01.489Z,960.41
2016-08-11T11:34:01.515Z,960.44
2016-08-11T11:35:01.543Z,960.44
2016-08-11T11:36:01.570Z,960.38
2016-08-11T11:37:01.596Z,960.38
2016-08-11T11:38:01.623Z,960.36
2016-08-11T11:39:01.650Z,960.37
2016-08-11T11:40:01.677Z,960.38
2016-08-11T11:41:01.703Z,960.36
2016-08-11T11:42:01.730Z,960.37
2016-08-11T11:43:01.757Z,960.38
2016-08-11T11:44:02.302Z,960.35
2016-08-11T11:46:01.838Z,960.34
2016-08-11T11:47:01.864Z,960.29
2016-08-11T11:48:01.891Z,960.3
2016-08-11T11:49:01.916Z,960.28
2016-08-11T11:50:01.945Z,960.32
2016-08-11T11:51:01.973Z,960.33
2016-08-11T11:52:01.999Z,960.36
2016-08-11T11:53:02.027Z,960.37
2016-08-11T11:54:02.052Z,960.36
2016-08-11T11:55:02.078Z,960.33
2016-08-11T11:56:02.104Z,960.39
2016-08-11T11:57:02.131Z,960.39
2016-08-11T11:58:02.160Z,960.4
2016-08-11T11:59:02.185Z,960.4
2016-08-11T12:01:02.242Z,960.38
2016-08-11T12:02:02.266Z,960.43
2016-08-11T12:03:02.293Z,960.4
2016-08-11T12:04:02.320Z,960.43
2016-08-11T12:05:02.346Z,960.37
2016-08-11T12:06:02.373Z,960.39
2016-08-11T12:07:02.414Z,960.39
2016-08-11T12:08:02.427Z,960.37
2016-08-11T12:09:02.454Z,960.36
2016-08-11T12:10:02.480Z,960.37
2016-08-11T12:11:02.508Z,960.38
2016-08-11T12:12:02.535Z,960.35
2016-08-11T12:13:02.562Z,960.36
2016-08-11T12:14:02.595Z,960.43
2016-08-11T12:15:02.616Z,960.39
2016-08-11T12:16:02.643Z,960.35
2016-08-11T12:17:02.667Z,960.35
2016-08-11T12:18:02.696Z,960.39
2016-08-11T12:19:02.723Z,960.35
2016-08-11T12:20:02.750Z,960.34
2016-08-11T12:21:02.781Z,960.36
2016-08-11T12:22:02.803Z,960.31
2016-08-11T12:23:02.829Z,960.37
2016-08-11T12:24:02.860Z,960.34
2016-08-11T12:25:02.882Z,960.3
2016-08-11T12:26:02.909Z,960.36
2016-08-11T12:27:02.936Z,960.3
2016-08-11T12:28:02.961Z,960.33
2016-08-11T12:29:02.988Z,960.31
2016-08-11T12:30:03.017Z,960.31
2016-08-11T12:31:03.043Z,960.31
2016-08-11T12:32:03.068Z,960.33
2016-08-11T12:33:03.099Z,960.32
2016-08-11T12:34:03.123Z,960.3
2016-08-11T12:35:03.149Z,960.32
2016-08-11T12:36:03.176Z,960.27
2016-08-11T12:37:03.203Z,960.28
2016-08-11T12:38:03.230Z,960.25
2016-08-11T12:39:03.256Z,960.28
2016-08-11T12:40:03.283Z,960.3
2016-08-11T12:41:03.317Z,960.3
2016-08-11T12:42:03.336Z,960.34
2016-08-11T12:43:03.363Z,960.3
2016-08-11T12:44:03.388Z,960.28
2016-08-11T12:45:03.418Z,960.27